Hlavní strana
METAR-TAF:

METAR-TAF

Letiště :

Caen, Francie

zeměpisná šířka: 49-11N, zeměpisná délka: 000-27W, výška: 78 m

Aktuální stav počasí

Zpráva byla vytvořena před 35 minutami, v 12:00 UTC
Severoseverozápadní vítr 10 kt
Teplota 12°C
Vlhkost vzduchu 88%
Tlak 1004 hPa
Viditelnost 10 km a více
Oblačno až skoro zataženo ve výšce 1400 ft
Zataženo ve výšce 1900 ft
slabý déšť

METAR: LFRK 041200Z AUTO 33010KT 9999 -RA BKN014 OVC019 12/10 Q1004 BECMG BKN030

Čas: 14:35 (12:35 UTC)

Předpověď počasí

Zpráva byla vytvořena před 1 hodinou a 35 minutami, v 11:00 UTC
Předpověď platná od 04 v 12 UTC do 04 v 21 UTC
Severní vítr 12 kt
Viditelnost 10 km a více
Oblačno až skoro zataženo ve výšce 1500 ft
Změna
od 04 v 12 UTC do 04 v 14 UTC
Oblačno až skoro zataženo ve výšce 3000 ft
Změna
od 04 v 18 UTC do 04 v 20 UTC
Západní vítr 10 kt

TAF: LFRK 041100Z 0412/0421 35012KT 9999 BKN015 BECMG 0412/0414 BKN030 BECMG 0418/0420 28010KT

Stav a předpovědi počasí z více než 4 000 letišť (zprávy METAR a TAF).

Červené a žluté tečky na mapě představují dostupné meteorologické stanice.

Když kurzor umístíte na tečku, zobrazí se název stanice.

Pak kliknutím zobrazíte stav a předpověď počasí.

Chcete-li změnit mapu, kliknutím na zelené tlačítko se znaménkem +mapu přiblížíte, kliknutím na zelené tlačítko se znaménkem – mapu oddálíte a kliknutím na zelené šipky přejdete na sousední mapy.


METAR-TAF: